Time;durP1;ratioP1;P1;durP2;ratioP2;P2;SDS_P1;SDS_P2;PMS_P1;PMS_P2;Temp;Humidity;BMP_temperature;BMP_pressure;BME280_temperature;BME280_humidity;BME280_pressure;Samples;Min_cycle;Max_cycle;Signal;HPM_P1;HPM_P2
2023/05/30 00:01:44;;;;;;;7.90;4.47;;;11.50;95.30;;;;;;5094752;28;20051;-73
2023/05/30 00:04:09;;;;;;;9.57;4.50;;;11.50;95.60;;;;;;5094670;28;20046;-73
2023/05/30 00:06:35;;;;;;;8.80;4.55;;;11.40;95.60;;;;;;5090020;28;20028;-73
2023/05/30 00:09:03;;;;;;;11.50;5.10;;;11.40;95.90;;;;;;5086029;28;20056;-73
2023/05/30 00:11:29;;;;;;;11.63;4.47;;;11.30;96.00;;;;;;5057795;28;20028;-72
2023/05/30 00:13:58;;;;;;;8.43;4.20;;;11.30;96.10;;;;;;5072514;28;20039;-73
2023/05/30 00:16:23;;;;;;;10.63;5.20;;;11.10;96.40;;;;;;5077858;28;20028;-73
2023/05/30 00:18:52;;;;;;;9.80;5.05;;;11.00;96.60;;;;;;5089500;28;20024;-73
2023/05/30 00:21:18;;;;;;;7.72;5.10;;;10.90;96.90;;;;;;5077719;28;20037;-73
2023/05/30 00:23:45;;;;;;;10.55;5.10;;;10.90;97.10;;;;;;5090980;28;20698;-73
2023/05/30 00:26:11;;;;;;;8.32;4.63;;;10.80;97.20;;;;;;5087478;28;20024;-73
2023/05/30 00:28:38;;;;;;;9.32;4.75;;;10.80;97.10;;;;;;5075090;28;20020;-72
2023/05/30 00:31:05;;;;;;;9.02;4.85;;;10.80;97.10;;;;;;5088868;28;20020;-73
2023/05/30 00:33:31;;;;;;;8.98;5.25;;;10.70;97.20;;;;;;5077053;28;20032;-72
2023/05/30 00:35:56;;;;;;;8.52;4.90;;;10.70;97.20;;;;;;5093245;28;20052;-73
2023/05/30 00:38:25;;;;;;;9.32;5.13;;;10.60;97.40;;;;;;5087539;28;20020;-73
2023/05/30 00:40:51;;;;;;;8.88;4.88;;;10.60;97.30;;;;;;5093251;28;20454;-73
2023/05/30 00:43:18;;;;;;;8.82;4.55;;;10.60;97.40;;;;;;5079166;28;20032;-73
2023/05/30 00:45:44;;;;;;;10.50;4.90;;;10.70;97.20;;;;;;5098840;28;20070;-73
2023/05/30 00:48:10;;;;;;;7.80;4.97;;;10.70;97.30;;;;;;5088918;28;20024;-72
2023/05/30 00:50:39;;;;;;;9.02;5.40;;;10.60;97.40;;;;;;5096497;28;20023;-72
2023/05/30 00:53:05;;;;;;;9.32;5.00;;;10.50;97.40;;;;;;5094925;28;20293;-72
2023/05/30 00:55:31;;;;;;;11.23;5.10;;;10.40;97.40;;;;;;5100256;28;20035;-72
2023/05/30 00:57:57;;;;;;;9.40;4.70;;;10.30;97.30;;;;;;5097751;28;20313;-73
2023/05/30 01:00:24;;;;;;;9.73;5.18;;;10.30;97.20;;;;;;5084708;28;20037;-73
2023/05/30 01:02:51;;;;;;;9.50;5.30;;;10.30;97.30;;;;;;5098663;28;20024;-73
2023/05/30 01:05:17;;;;;;;7.65;4.95;;;10.20;97.30;;;;;;5088963;28;20027;-73
2023/05/30 01:07:44;;;;;;;10.15;4.75;;;10.30;97.30;;;;;;5078319;28;20028;-72
2023/05/30 01:10:13;;;;;;;9.98;5.35;;;10.70;97.60;;;;;;5091177;28;20303;-72
2023/05/30 01:12:44;;;;;;;9.10;4.40;;;11.00;97.40;;;;;;5078420;28;20298;-73
2023/05/30 01:15:38;;;;;;;9.88;5.45;;;11.50;95.90;;;;;;5078339;28;20025;-73
2023/05/30 01:18:19;;;;;;;8.13;4.50;;;11.90;94.50;;;;;;5070499;28;20429;-73
2023/05/30 01:20:48;;;;;;;9.23;5.00;;;12.20;93.40;;;;;;5084433;28;20278;-72
2023/05/30 01:23:20;;;;;;;9.68;4.88;;;12.20;93.50;;;;;;5085871;28;20024;-73
2023/05/30 01:26:04;;;;;;;13.40;4.78;;;12.00;94.00;;;;;;5090955;28;20032;-73
2023/05/30 01:28:33;;;;;;;8.43;4.88;;;12.00;93.90;;;;;;5091067;28;20020;-72
2023/05/30 01:31:00;;;;;;;10.43;5.43;;;11.90;94.00;;;;;;5096456;28;20028;-73
2023/05/30 01:33:31;;;;;;;11.43;4.90;;;11.90;94.00;;;;;;5096051;28;20104;-73
2023/05/30 01:35:56;;;;;;;10.02;5.63;;;11.80;94.30;;;;;;5095078;28;20072;-72
2023/05/30 01:38:22;;;;;;;11.85;5.38;;;11.70;94.60;;;;;;5079623;28;20063;-73
2023/05/30 01:40:53;;;;;;;9.95;4.82;;;11.70;94.90;;;;;;5090969;28;20032;-73
2023/05/30 01:43:31;;;;;;;8.88;5.13;;;11.70;94.90;;;;;;5097816;28;20304;-73
2023/05/30 01:46:01;;;;;;;9.75;5.35;;;11.70;94.70;;;;;;5078942;28;20036;-73
2023/05/30 01:48:57;;;;;;;11.07;5.20;;;11.70;94.70;;;;;;5078099;28;20317;-72
2023/05/30 01:51:29;;;;;;;9.82;5.47;;;11.60;94.70;;;;;;5108107;28;20060;-72
2023/05/30 01:53:59;;;;;;;9.70;4.85;;;11.40;95.40;;;;;;5084578;28;20028;-73
2023/05/30 01:56:27;;;;;;;10.13;5.22;;;11.30;95.90;;;;;;5096866;28;20025;-73
2023/05/30 01:58:54;;;;;;;9.68;5.25;;;11.20;96.30;;;;;;5071657;28;20372;-73
2023/05/30 02:01:23;;;;;;;10.98;5.55;;;11.10;96.60;;;;;;5081871;28;20031;-73
2023/05/30 02:03:48;;;;;;;10.60;4.97;;;11.00;96.90;;;;;;5095992;28;20401;-72
2023/05/30 02:06:14;;;;;;;10.25;5.00;;;10.90;97.10;;;;;;5096705;28;20110;-72
2023/05/30 02:08:40;;;;;;;10.45;5.13;;;10.80;97.20;;;;;;5091629;28;20071;-73
2023/05/30 02:11:06;;;;;;;10.45;5.68;;;10.70;97.30;;;;;;5095725;28;20023;-73
2023/05/30 02:13:32;;;;;;;11.70;5.30;;;10.60;97.40;;;;;;5092624;28;20027;-72
2023/05/30 02:15:58;;;;;;;8.30;4.70;;;10.60;97.50;;;;;;5092275;28;20424;-73
2023/05/30 02:18:27;;;;;;;10.70;5.82;;;10.40;97.40;;;;;;5096272;28;20043;-73
2023/05/30 02:20:56;;;;;;;10.85;5.38;;;10.30;97.40;;;;;;5094575;28;20433;-73
2023/05/30 02:23:21;;;;;;;14.40;6.53;;;10.20;97.20;;;;;;5070354;28;20032;-73
2023/05/30 02:25:47;;;;;;;11.88;5.60;;;10.20;97.20;;;;;;5085231;28;20028;-73
2023/05/30 02:28:13;;;;;;;10.07;5.30;;;10.20;97.40;;;;;;5095334;28;20036;-73
2023/05/30 02:30:38;;;;;;;11.70;5.40;;;10.20;97.60;;;;;;5089982;28;20032;-73
2023/05/30 02:33:04;;;;;;;8.77;5.07;;;10.10;97.50;;;;;;5096035;28;20111;-73
2023/05/30 02:35:30;;;;;;;10.18;5.57;;;10.00;97.30;;;;;;5089403;28;20033;-75
2023/05/30 02:37:55;;;;;;;9.90;5.20;;;9.90;97.00;;;;;;5090322;28;20027;-72
2023/05/30 02:40:21;;;;;;;10.00;5.72;;;9.80;96.70;;;;;;5092030;28;20110;-73
2023/05/30 02:42:47;;;;;;;10.30;6.57;;;9.80;96.80;;;;;;5078840;28;20028;-72
2023/05/30 02:45:12;;;;;;;9.77;6.20;;;9.70;96.40;;;;;;5080236;28;20023;-72
2023/05/30 02:47:39;;;;;;;8.85;5.38;;;9.60;96.20;;;;;;5093312;28;20020;-73
2023/05/30 02:50:06;;;;;;;10.07;5.57;;;9.50;95.40;;;;;;5094676;28;20032;-72
2023/05/30 02:52:32;;;;;;;11.93;6.47;;;9.50;95.10;;;;;;5093085;28;20087;-72
2023/05/30 02:54:57;;;;;;;12.18;5.63;;;9.40;94.70;;;;;;5079820;28;20028;-73
2023/05/30 02:57:23;;;;;;;12.25;6.18;;;9.40;94.70;;;;;;5080739;28;20071;-73
2023/05/30 02:59:48;;;;;;;10.68;5.82;;;9.40;94.30;;;;;;5086520;28;20052;-72
2023/05/30 03:02:14;;;;;;;10.68;5.78;;;9.40;94.50;;;;;;5076291;28;20028;-72
2023/05/30 03:04:46;;;;;;;12.07;6.25;;;9.30;94.40;;;;;;5086333;28;20020;-72
2023/05/30 03:07:17;;;;;;;9.68;6.00;;;9.40;94.30;;;;;;5095675;28;20042;-72
2023/05/30 03:09:46;;;;;;;13.85;6.28;;;9.30;94.50;;;;;;5101269;28;20069;-73
2023/05/30 03:12:11;;;;;;;10.43;6.18;;;9.20;94.30;;;;;;5075569;28;20034;-72
2023/05/30 03:14:37;;;;;;;11.20;5.85;;;9.20;93.70;;;;;;5095608;28;20023;-72
2023/05/30 03:17:06;;;;;;;10.32;6.40;;;9.10;93.50;;;;;;5065282;28;20043;-73
2023/05/30 03:19:32;;;;;;;10.57;6.35;;;9.00;92.70;;;;;;5089482;28;20114;-73
2023/05/30 03:21:57;;;;;;;11.45;6.38;;;9.10;92.60;;;;;;5088869;28;20036;-73
2023/05/30 03:24:23;;;;;;;10.65;6.03;;;9.10;92.70;;;;;;5090495;28;20063;-73
2023/05/30 03:26:49;;;;;;;11.73;6.05;;;9.10;93.30;;;;;;5082760;28;20097;-73
2023/05/30 03:29:15;;;;;;;12.68;5.80;;;9.10;93.30;;;;;;5095262;28;20024;-74
2023/05/30 03:31:41;;;;;;;9.88;5.82;;;9.10;93.60;;;;;;5087933;28;20027;-73
2023/05/30 03:34:07;;;;;;;10.73;5.53;;;9.10;93.10;;;;;;5092959;28;20024;-73
2023/05/30 03:36:32;;;;;;;13.57;6.10;;;9.20;93.50;;;;;;5088196;28;20076;-73
2023/05/30 03:38:58;;;;;;;9.80;5.40;;;9.30;95.00;;;;;;5070280;28;20190;-73
2023/05/30 03:41:23;;;;;;;9.50;5.38;;;9.40;95.10;;;;;;5077834;28;20028;-72
2023/05/30 03:43:49;;;;;;;10.48;6.10;;;9.40;95.00;;;;;;5097784;28;20107;-72
2023/05/30 03:46:16;;;;;;;8.88;5.85;;;9.40;95.10;;;;;;5075510;28;20298;-72
2023/05/30 03:48:45;;;;;;;9.73;5.50;;;9.30;94.70;;;;;;5081786;28;20055;-72
2023/05/30 03:51:11;;;;;;;12.13;6.47;;;9.30;94.30;;;;;;5084871;28;20317;-72
2023/05/30 03:53:37;;;;;;;11.85;5.80;;;9.30;93.90;;;;;;5082117;28;20031;-73
2023/05/30 03:56:02;;;;;;;11.18;5.82;;;9.40;94.20;;;;;;5087528;28;20317;-73
2023/05/30 03:58:28;;;;;;;9.63;5.68;;;9.40;94.00;;;;;;5085610;28;20110;-73
2023/05/30 04:00:54;;;;;;;9.35;6.03;;;9.40;94.10;;;;;;5074806;28;20024;-73
2023/05/30 04:03:19;;;;;;;9.70;5.30;;;9.40;94.20;;;;;;5084192;28;20028;-73
2023/05/30 04:05:48;;;;;;;9.85;5.63;;;9.50;94.40;;;;;;5094022;28;20043;-74
2023/05/30 04:08:14;;;;;;;8.90;5.55;;;9.50;94.70;;;;;;5087282;28;20016;-73
2023/05/30 04:10:40;;;;;;;11.25;6.47;;;9.50;94.90;;;;;;5075312;28;20312;-73
2023/05/30 04:13:06;;;;;;;11.65;6.70;;;9.50;94.80;;;;;;5089818;28;20045;-73
2023/05/30 04:15:32;;;;;;;10.50;6.72;;;9.60;94.80;;;;;;5064050;28;20111;-73
2023/05/30 04:18:00;;;;;;;9.93;6.25;;;9.60;94.70;;;;;;5095822;28;20106;-73
2023/05/30 04:20:25;;;;;;;11.50;6.68;;;9.70;95.40;;;;;;5096619;28;20020;-73
2023/05/30 04:22:51;;;;;;;9.68;6.00;;;9.70;95.80;;;;;;5074617;28;20025;-73
2023/05/30 04:25:17;;;;;;;9.48;5.43;;;9.70;95.40;;;;;;5091033;28;20024;-73
2023/05/30 04:27:43;;;;;;;9.98;5.68;;;9.80;95.40;;;;;;5071755;28;20024;-73
2023/05/30 04:30:10;;;;;;;9.18;5.32;;;9.80;95.70;;;;;;5096746;28;20027;-73
2023/05/30 04:32:36;;;;;;;10.38;5.90;;;9.90;95.80;;;;;;5095972;28;20051;-73
2023/05/30 04:35:03;;;;;;;10.90;6.28;;;9.90;95.50;;;;;;5099053;28;20056;-73
2023/05/30 04:37:29;;;;;;;12.68;5.90;;;10.00;95.60;;;;;;5095383;28;20040;-73
2023/05/30 04:39:56;;;;;;;11.68;5.63;;;10.10;95.90;;;;;;5095720;28;20020;-73
2023/05/30 04:42:26;;;;;;;10.45;6.13;;;10.20;96.60;;;;;;5095208;28;20058;-73
2023/05/30 04:44:53;;;;;;;10.45;5.80;;;10.20;96.80;;;;;;5097533;28;20028;-73
2023/05/30 04:47:21;;;;;;;11.52;5.47;;;10.30;97.00;;;;;;5091693;28;20028;-73
2023/05/30 04:49:47;;;;;;;10.85;5.82;;;10.30;96.90;;;;;;5091410;28;20016;-73
2023/05/30 04:52:12;;;;;;;11.35;5.90;;;10.40;96.70;;;;;;5093272;28;20294;-73
2023/05/30 04:54:38;;;;;;;9.75;6.22;;;10.50;96.70;;;;;;5081263;28;20063;-73
2023/05/30 04:57:04;;;;;;;9.70;5.95;;;10.60;97.00;;;;;;5084371;28;20024;-73
2023/05/30 04:59:30;;;;;;;8.40;5.72;;;10.70;97.20;;;;;;5088286;28;20024;-74
2023/05/30 05:01:56;;;;;;;10.90;5.88;;;10.80;97.50;;;;;;5085624;28;20024;-73
2023/05/30 05:04:22;;;;;;;10.27;5.80;;;10.80;97.60;;;;;;5074214;28;20059;-73
2023/05/30 05:06:47;;;;;;;13.75;6.07;;;10.90;98.00;;;;;;5101483;28;20525;-73
2023/05/30 05:09:13;;;;;;;10.70;6.53;;;10.90;97.90;;;;;;5094724;28;20474;-72
2023/05/30 05:11:39;;;;;;;9.35;5.88;;;11.00;97.90;;;;;;5085592;28;20031;-73
2023/05/30 05:14:04;;;;;;;12.15;5.53;;;11.10;97.70;;;;;;5092112;28;20032;-73
2023/05/30 05:16:30;;;;;;;11.95;6.15;;;11.20;98.00;;;;;;5095876;28;20043;-73
2023/05/30 05:18:56;;;;;;;9.88;5.72;;;11.30;98.00;;;;;;5095166;28;20417;-73
2023/05/30 05:21:21;;;;;;;9.80;6.10;;;11.40;98.00;;;;;;5085892;28;20040;-73
2023/05/30 05:23:47;;;;;;;12.73;5.97;;;11.50;98.00;;;;;;5090242;28;20032;-73
2023/05/30 05:26:13;;;;;;;10.98;5.55;;;11.70;98.00;;;;;;5094807;28;20035;-73
2023/05/30 05:28:39;;;;;;;10.52;6.00;;;11.90;98.00;;;;;;5089656;28;20028;-73
2023/05/30 05:31:04;;;;;;;11.57;6.00;;;12.10;98.00;;;;;;5093616;28;20020;-73
2023/05/30 05:33:30;;;;;;;10.88;6.18;;;12.40;97.80;;;;;;5092810;28;20035;-73
2023/05/30 05:35:55;;;;;;;12.82;5.65;;;12.50;96.60;;;;;;5091417;28;20508;-73
2023/05/30 05:38:21;;;;;;;9.73;5.97;;;12.70;96.10;;;;;;5092889;28;20077;-72
2023/05/30 05:40:47;;;;;;;9.80;5.60;;;12.90;95.90;;;;;;5090305;28;20144;-73
2023/05/30 05:43:13;;;;;;;14.68;6.65;;;13.10;95.90;;;;;;5084449;28;20107;-73
2023/05/30 05:45:39;;;;;;;10.52;5.50;;;13.30;95.20;;;;;;5095616;28;20039;-73
2023/05/30 05:48:05;;;;;;;13.20;6.20;;;13.40;93.90;;;;;;5096799;28;20024;-73
2023/05/30 05:50:30;;;;;;;8.85;5.50;;;13.50;93.50;;;;;;5095353;28;20043;-73
2023/05/30 05:52:56;;;;;;;10.85;6.35;;;13.60;92.80;;;;;;5080230;28;20020;-73
2023/05/30 05:55:22;;;;;;;10.35;6.07;;;13.70;92.80;;;;;;5093807;28;20020;-73
2023/05/30 05:57:47;;;;;;;12.25;6.20;;;13.70;93.20;;;;;;5097309;28;20352;-73
2023/05/30 06:00:13;;;;;;;12.50;6.35;;;13.70;93.00;;;;;;5091487;28;20034;-73
2023/05/30 06:02:39;;;;;;;11.77;5.75;;;13.80;92.90;;;;;;5093521;28;20019;-73
2023/05/30 06:05:06;;;;;;;15.32;6.43;;;13.90;92.40;;;;;;5088091;28;20432;-73
2023/05/30 06:07:32;;;;;;;14.73;7.20;;;14.00;92.00;;;;;;5089886;28;20024;-72
2023/05/30 06:09:58;;;;;;;11.05;6.22;;;14.00;92.20;;;;;;5087203;28;20039;-73
2023/05/30 06:12:23;;;;;;;10.57;5.65;;;14.00;91.80;;;;;;5094267;28;20024;-73
2023/05/30 06:14:49;;;;;;;11.60;6.53;;;14.10;91.10;;;;;;5094796;28;20032;-73
2023/05/30 06:17:15;;;;;;;10.45;5.80;;;14.20;90.10;;;;;;5089224;28;20056;-73
2023/05/30 06:19:40;;;;;;;12.88;6.38;;;14.40;90.50;;;;;;5094904;28;20329;-73
2023/05/30 06:22:07;;;;;;;11.45;6.07;;;14.60;89.60;;;;;;5094692;28;20028;-73
2023/05/30 06:24:33;;;;;;;11.90;6.88;;;14.70;90.20;;;;;;5086920;28;20051;-73
2023/05/30 06:26:59;;;;;;;11.18;6.45;;;14.80;89.10;;;;;;5083847;28;20036;-73
2023/05/30 06:29:24;;;;;;;15.07;6.10;;;14.80;88.70;;;;;;5089105;28;20024;-73
2023/05/30 06:31:50;;;;;;;16.27;6.40;;;15.00;89.20;;;;;;5092293;28;20044;-73
2023/05/30 06:34:16;;;;;;;10.95;5.80;;;14.90;89.00;;;;;;5090014;28;20321;-73
2023/05/30 06:36:41;;;;;;;12.77;6.72;;;14.90;88.10;;;;;;5087208;28;20048;-73
2023/05/30 06:39:09;;;;;;;12.48;5.97;;;14.90;89.30;;;;;;5088470;28;20381;-73
2023/05/30 06:41:34;;;;;;;10.82;5.95;;;15.20;89.10;;;;;;5062676;28;20035;-73
2023/05/30 06:44:00;;;;;;;12.27;6.07;;;15.30;88.10;;;;;;5091585;28;20038;-73
2023/05/30 06:46:26;;;;;;;12.93;6.78;;;15.20;88.60;;;;;;5092919;28;20434;-73
2023/05/30 06:48:51;;;;;;;15.73;6.45;;;15.40;88.00;;;;;;5074549;28;20329;-73
2023/05/30 06:51:17;;;;;;;10.88;6.28;;;15.60;87.60;;;;;;5093961;28;20027;-73
2023/05/30 06:53:42;;;;;;;12.43;7.07;;;15.70;88.00;;;;;;5094017;28;20756;-73
2023/05/30 06:56:08;;;;;;;11.30;6.25;;;15.80;86.30;;;;;;5095386;28;20074;-73
2023/05/30 06:58:33;;;;;;;12.93;6.20;;;15.60;87.70;;;;;;5085078;28;20023;-73
2023/05/30 07:00:59;;;;;;;12.20;6.57;;;15.80;87.90;;;;;;5090150;28;20408;-73
2023/05/30 07:03:25;;;;;;;12.60;6.35;;;15.90;86.30;;;;;;5088698;28;20024;-73
2023/05/30 07:05:51;;;;;;;12.88;6.57;;;16.10;86.90;;;;;;5070493;28;20421;-73
2023/05/30 07:08:16;;;;;;;10.98;6.47;;;16.20;86.70;;;;;;5085969;28;20033;-73
2023/05/30 07:10:42;;;;;;;12.50;6.20;;;16.10;86.00;;;;;;5092058;28;20404;-74
2023/05/30 07:13:08;;;;;;;12.35;6.40;;;16.10;86.70;;;;;;5074021;28;20032;-75
2023/05/30 07:15:33;;;;;;;14.25;6.88;;;16.50;85.40;;;;;;5082203;28;20037;-74
2023/05/30 07:17:59;;;;;;;13.38;6.25;;;16.60;84.70;;;;;;5078627;28;20052;-73
2023/05/30 07:20:24;;;;;;;11.30;6.28;;;16.60;84.80;;;;;;5087425;28;20084;-74
2023/05/30 07:22:50;;;;;;;10.27;6.45;;;16.70;83.20;;;;;;5095452;28;20024;-73
2023/05/30 07:25:16;;;;;;;11.10;5.70;;;17.00;83.80;;;;;;5062519;28;20317;-73
2023/05/30 07:27:42;;;;;;;10.30;5.68;;;17.00;83.70;;;;;;5077562;28;20034;-73
2023/05/30 07:30:08;;;;;;;13.57;6.13;;;17.50;83.00;;;;;;5059472;28;20112;-73
2023/05/30 07:32:33;;;;;;;11.27;5.47;;;17.80;81.10;;;;;;5084081;28;20051;-73
2023/05/30 07:34:59;;;;;;;10.95;5.80;;;18.20;81.20;;;;;;5080124;28;20025;-73
2023/05/30 07:37:25;;;;;;;10.93;5.82;;;18.50;79.50;;;;;;5077136;28;20045;-73
2023/05/30 07:39:50;;;;;;;12.35;6.32;;;18.70;79.90;;;;;;5094674;28;20036;-74
2023/05/30 07:42:16;;;;;;;11.43;6.03;;;18.80;79.50;;;;;;5089896;28;20364;-73
2023/05/30 07:44:41;;;;;;;12.77;6.07;;;18.60;78.30;;;;;;5088704;28;20042;-73
2023/05/30 07:47:07;;;;;;;12.15;5.63;;;18.50;78.60;;;;;;5089284;28;20464;-73
2023/05/30 07:49:32;;;;;;;14.45;6.50;;;18.60;78.50;;;;;;5086654;28;20020;-73
2023/05/30 07:51:58;;;;;;;14.98;6.80;;;18.90;78.00;;;;;;5084563;28;20031;-73
2023/05/30 07:54:24;;;;;;;9.45;5.50;;;18.90;78.00;;;;;;5073548;28;20052;-73
2023/05/30 07:56:51;;;;;;;10.93;5.72;;;19.00;79.00;;;;;;5084002;28;20023;-73
2023/05/30 07:59:16;;;;;;;12.30;5.78;;;19.20;76.80;;;;;;5084278;28;20063;-73
2023/05/30 08:01:44;;;;;;;10.70;6.07;;;19.30;77.40;;;;;;5073035;28;20216;-73
2023/05/30 08:04:09;;;;;;;12.23;6.00;;;19.10;77.00;;;;;;5081432;28;20045;-73
2023/05/30 08:06:35;;;;;;;12.80;6.00;;;19.40;76.70;;;;;;5092967;28;20070;-73
2023/05/30 08:09:01;;;;;;;13.43;6.00;;;19.80;76.80;;;;;;5083248;28;20019;-74
2023/05/30 08:11:26;;;;;;;10.23;5.85;;;20.20;74.20;;;;;;5091207;28;20032;-74
2023/05/30 08:13:52;;;;;;;11.85;6.63;;;19.90;75.30;;;;;;5080284;28;20047;-73
2023/05/30 08:16:23;;;;;;;11.75;5.47;;;20.00;75.40;;;;;;5087059;28;20285;-72
2023/05/30 08:18:49;;;;;;;10.07;5.82;;;20.20;75.80;;;;;;5092420;28;20043;-74
2023/05/30 08:21:18;;;;;;;13.18;5.75;;;21.50;73.00;;;;;;5083380;28;20358;-73
2023/05/30 08:23:45;;;;;;;11.38;5.85;;;21.80;72.60;;;;;;5094623;28;20056;-73
2023/05/30 08:26:10;;;;;;;17.77;6.45;;;21.80;70.60;;;;;;5081983;28;20031;-74
2023/05/30 08:28:36;;;;;;;11.68;6.18;;;21.00;72.00;;;;;;5085790;28;20461;-73
2023/05/30 08:31:03;;;;;;;12.10;5.80;;;20.50;73.70;;;;;;5085796;28;20048;-73
2023/05/30 08:33:29;;;;;;;12.77;6.07;;;20.50;74.50;;;;;;5089874;28;20317;-72
2023/05/30 08:35:54;;;;;;;9.50;5.43;;;20.40;74.70;;;;;;5087777;28;20033;-73
2023/05/30 08:38:20;;;;;;;12.18;5.88;;;20.80;73.30;;;;;;5081439;28;20024;-73
2023/05/30 08:40:46;;;;;;;13.07;6.03;;;21.40;72.80;;;;;;5083385;28;20039;-73
2023/05/30 08:43:11;;;;;;;10.82;5.05;;;21.30;72.80;;;;;;5082399;28;20114;-72
2023/05/30 08:45:40;;;;;;;10.70;5.85;;;21.30;72.50;;;;;;5085709;28;20028;-73
2023/05/30 08:48:08;;;;;;;9.80;5.65;;;21.10;71.90;;;;;;5089120;28;20043;-73
2023/05/30 08:50:36;;;;;;;10.98;6.22;;;21.00;73.40;;;;;;5081887;28;20026;-73
2023/05/30 08:53:07;;;;;;;12.70;6.63;;;21.00;72.90;;;;;;5077812;28;20052;-73
2023/05/30 08:55:40;;;;;;;11.68;5.95;;;21.30;71.70;;;;;;5078807;28;20036;-72
2023/05/30 08:58:13;;;;;;;13.25;6.10;;;21.30;71.70;;;;;;5076655;28;20020;-72
2023/05/30 09:00:38;;;;;;;14.60;5.97;;;21.30;71.60;;;;;;5093640;28;20088;-73
2023/05/30 09:03:07;;;;;;;8.85;5.38;;;20.70;74.10;;;;;;5085925;28;20480;-73
2023/05/30 09:05:34;;;;;;;13.02;5.63;;;20.80;73.30;;;;;;5093422;28;20082;-73
2023/05/30 09:08:00;;;;;;;10.38;5.72;;;21.00;72.40;;;;;;5096645;28;20129;-73
2023/05/30 09:10:27;;;;;;;12.85;5.97;;;20.80;72.80;;;;;;5116384;28;20358;-72
2023/05/30 09:12:53;;;;;;;11.18;6.05;;;20.80;72.50;;;;;;5114071;28;20095;-73
2023/05/30 09:15:22;;;;;;;10.07;5.25;;;21.30;72.80;;;;;;5098423;28;20039;-72
2023/05/30 09:17:47;;;;;;;9.90;5.40;;;22.10;70.40;;;;;;5092847;28;20028;-72
2023/05/30 09:20:20;;;;;;;11.40;5.68;;;22.20;70.00;;;;;;5089853;28;20050;-73
2023/05/30 09:22:46;;;;;;;11.10;4.93;;;22.30;70.70;;;;;;5078210;28;20298;-72
2023/05/30 09:25:15;;;;;;;13.45;6.25;;;22.10;71.00;;;;;;5077152;28;20028;-73
2023/05/30 09:27:50;;;;;;;12.20;5.75;;;22.60;69.40;;;;;;5078293;28;20028;-72
2023/05/30 09:30:16;;;;;;;11.05;5.45;;;23.10;67.70;;;;;;5079279;28;20417;-72
2023/05/30 09:32:58;;;;;;;10.05;5.20;;;22.30;69.00;;;;;;5085911;28;20020;-72
2023/05/30 09:35:25;;;;;;;14.20;5.93;;;22.40;71.10;;;;;;5097498;28;20028;-72
2023/05/30 09:37:51;;;;;;;10.68;5.53;;;22.70;68.50;;;;;;5098319;28;20081;-71
2023/05/30 09:40:17;;;;;;;10.35;4.70;;;23.30;68.60;;;;;;5097156;28;20055;-71
2023/05/30 09:42:46;;;;;;;10.50;5.63;;;23.50;67.50;;;;;;5092771;28;20381;-72
2023/05/30 09:45:16;;;;;;;12.73;5.20;;;23.50;66.90;;;;;;5077837;28;20098;-72
2023/05/30 09:47:46;;;;;;;11.77;5.35;;;23.80;66.30;;;;;;5077689;28;20032;-73
2023/05/30 09:50:17;;;;;;;11.68;5.72;;;24.30;67.80;;;;;;5077893;28;20039;-72
2023/05/30 09:52:44;;;;;;;11.30;5.63;;;24.50;65.90;;;;;;5077779;28;20024;-72
2023/05/30 09:55:13;;;;;;;9.35;5.35;;;24.50;64.40;;;;;;5076640;28;20437;-72
2023/05/30 09:57:40;;;;;;;11.68;5.68;;;23.50;66.60;;;;;;5084772;28;20024;-72
2023/05/30 10:00:09;;;;;;;9.45;5.75;;;23.40;67.20;;;;;;5097795;28;20025;-73
2023/05/30 10:02:39;;;;;;;10.50;5.57;;;23.60;67.40;;;;;;5097970;28;20020;-72
2023/05/30 10:05:06;;;;;;;9.55;6.07;;;22.60;68.90;;;;;;5097909;28;20020;-73
2023/05/30 10:07:32;;;;;;;11.55;5.75;;;22.80;69.10;;;;;;5097644;28;20089;-72
2023/05/30 10:10:01;;;;;;;11.00;5.88;;;22.70;69.40;;;;;;5096614;28;20025;-73
2023/05/30 10:12:28;;;;;;;12.02;5.60;;;22.90;69.30;;;;;;5096959;28;20609;-72
2023/05/30 10:14:54;;;;;;;9.02;5.38;;;23.40;67.60;;;;;;5096503;28;20111;-73
2023/05/30 10:17:23;;;;;;;15.75;6.05;;;24.40;66.60;;;;;;5097529;28;20440;-73
2023/05/30 10:20:01;;;;;;;10.98;5.05;;;25.20;63.60;;;;;;5097533;28;20024;-74
2023/05/30 10:22:31;;;;;;;9.75;5.20;;;24.70;65.90;;;;;;5097612;28;20028;-73
2023/05/30 10:24:59;;;;;;;11.05;5.55;;;25.30;63.80;;;;;;5096078;28;20051;-73
2023/05/30 10:27:30;;;;;;;10.38;5.43;;;24.90;64.40;;;;;;5096463;28;20356;-73
2023/05/30 10:30:05;;;;;;;13.20;5.45;;;24.90;64.50;;;;;;5077155;28;20103;-73
2023/05/30 10:32:36;;;;;;;10.02;5.90;;;24.80;64.30;;;;;;5077018;28;20016;-73
2023/05/30 10:35:11;;;;;;;9.60;4.95;;;24.60;64.70;;;;;;5085737;28;20310;-72
2023/05/30 10:37:38;;;;;;;11.93;5.60;;;24.40;65.30;;;;;;5095230;28;20047;-73
2023/05/30 10:40:06;;;;;;;14.20;5.47;;;23.80;66.50;;;;;;5092643;28;20038;-73
2023/05/30 10:42:43;;;;;;;12.82;5.40;;;23.80;66.90;;;;;;5092860;28;20434;-73
2023/05/30 10:45:42;;;;;;;14.23;6.05;;;23.40;67.30;;;;;;5089386;28;20031;-73
2023/05/30 10:48:29;;;;;;;11.23;5.30;;;23.10;68.10;;;;;;5078134;28;20332;-73
2023/05/30 10:50:59;;;;;;;13.88;5.70;;;24.10;66.40;;;;;;5091395;28;20024;-72
2023/05/30 10:53:25;;;;;;;11.35;5.90;;;23.70;66.50;;;;;;5096664;28;20313;-72
2023/05/30 10:55:51;;;;;;;10.23;5.15;;;23.50;68.50;;;;;;5095801;28;20020;-73
2023/05/30 10:58:36;;;;;;;8.93;4.93;;;24.20;65.50;;;;;;5095975;28;20114;-73
2023/05/30 11:01:25;;;;;;;11.23;4.75;;;24.40;64.60;;;;;;5096601;28;20103;-72
2023/05/30 11:04:13;;;;;;;10.68;5.30;;;24.60;64.80;;;;;;5078569;28;20024;-73
2023/05/30 11:06:44;;;;;;;8.60;4.53;;;24.70;63.50;;;;;;5096687;28;20417;-73
2023/05/30 11:09:15;;;;;;;10.65;5.40;;;24.90;67.10;;;;;;5094612;28;20020;-73
2023/05/30 11:11:54;;;;;;;10.88;4.95;;;24.70;64.00;;;;;;5095605;28;20020;-73
2023/05/30 11:14:31;;;;;;;10.23;5.00;;;24.20;65.80;;;;;;5078562;28;20028;-73
2023/05/30 11:17:00;;;;;;;8.57;4.70;;;24.30;65.00;;;;;;5096392;28;20024;-73
2023/05/30 11:19:40;;;;;;;10.23;5.00;;;23.90;64.80;;;;;;5096204;28;20028;-74
2023/05/30 11:22:10;;;;;;;9.88;4.88;;;23.70;65.20;;;;;;5096267;28;20022;-73
2023/05/30 11:24:36;;;;;;;7.28;4.30;;;23.30;65.80;;;;;;5095223;28;20028;-73
2023/05/30 11:27:10;;;;;;;9.18;4.55;;;23.30;66.10;;;;;;5091781;28;20047;-74
2023/05/30 11:29:50;;;;;;;10.15;4.63;;;23.90;66.10;;;;;;5093648;28;20099;-73
2023/05/30 11:32:22;;;;;;;9.48;4.40;;;23.90;64.70;;;;;;5076092;28;20016;-74
2023/05/30 11:35:00;;;;;;;8.93;4.35;;;23.90;65.50;;;;;;5058188;28;20059;-73
2023/05/30 11:37:28;;;;;;;7.63;4.47;;;23.60;65.10;;;;;;5075674;28;20068;-74
2023/05/30 11:39:57;;;;;;;12.15;4.40;;;23.40;66.40;;;;;;5074742;28;20024;-74
2023/05/30 11:42:24;;;;;;;12.10;4.55;;;23.40;66.20;;;;;;5086813;28;20114;-73
2023/05/30 11:44:50;;;;;;;7.50;4.30;;;22.90;65.80;;;;;;5078142;28;20031;-73
2023/05/30 11:47:18;;;;;;;7.93;4.35;;;23.00;66.80;;;;;;5095938;28;20020;-73
2023/05/30 11:49:45;;;;;;;10.18;4.68;;;23.30;66.50;;;;;;5078000;28;20432;-73
2023/05/30 11:52:12;;;;;;;10.65;4.32;;;23.60;65.00;;;;;;5096056;28;20032;-73
2023/05/30 11:54:38;;;;;;;10.30;4.70;;;24.20;64.00;;;;;;5094749;28;20141;-73
2023/05/30 11:57:06;;;;;;;8.63;4.30;;;24.30;63.40;;;;;;5094565;28;20024;-73
2023/05/30 11:59:32;;;;;;;11.40;4.57;;;24.60;67.10;;;;;;5075763;28;20032;-73
2023/05/30 12:01:58;;;;;;;10.30;4.50;;;25.10;62.10;;;;;;5094634;28;20035;-73
2023/05/30 12:04:31;;;;;;;7.90;3.90;;;25.00;63.50;;;;;;5095901;28;20027;-73
2023/05/30 12:07:03;;;;;;;7.88;4.20;;;25.30;62.80;;;;;;5095784;28;20029;-73
2023/05/30 12:09:34;;;;;;;10.35;4.55;;;25.30;62.50;;;;;;5076493;28;20416;-74
2023/05/30 12:12:00;;;;;;;12.48;4.78;;;24.60;62.50;;;;;;5093227;28;20043;-74
2023/05/30 12:14:29;;;;;;;8.50;3.67;;;24.50;62.50;;;;;;5075546;28;20324;-73
2023/05/30 12:16:56;;;;;;;7.80;4.10;;;24.50;63.90;;;;;;5093119;28;20035;-73
2023/05/30 12:19:29;;;;;;;18.02;4.40;;;24.90;62.10;;;;;;5094696;28;20024;-73
2023/05/30 12:21:55;;;;;;;9.77;4.30;;;25.50;62.50;;;;;;5075695;28;20056;-72
2023/05/30 12:24:25;;;;;;;9.50;4.00;;;25.40;61.50;;;;;;5081842;28;20075;-73
2023/05/30 12:26:56;;;;;;;8.18;3.60;;;25.70;61.20;;;;;;5079699;28;20051;-73
2023/05/30 12:29:25;;;;;;;10.88;3.72;;;26.50;61.60;;;;;;5084499;28;20025;-72
2023/05/30 12:31:52;;;;;;;9.82;3.95;;;26.90;60.30;;;;;;5083431;28;20020;-72
2023/05/30 12:34:18;;;;;;;8.50;4.07;;;27.20;58.00;;;;;;5095523;28;20149;-72
2023/05/30 12:36:46;;;;;;;7.75;3.75;;;27.00;58.30;;;;;;5077341;28;20512;-74
2023/05/30 12:39:12;;;;;;;8.05;3.70;;;26.70;59.90;;;;;;5078772;28;20028;-74
2023/05/30 12:41:40;;;;;;;7.50;3.90;;;27.60;59.50;;;;;;5078915;28;20027;-74
2023/05/30 12:44:07;;;;;;;9.82;3.80;;;27.80;57.80;;;;;;5061429;28;20448;-73